Time;durP1;ratioP1;P1;durP2;ratioP2;P2;SDS_P1;SDS_P2;PMS_P1;PMS_P2;Temp;Humidity;BMP_temperature;BMP_pressure;BME280_temperature;BME280_humidity;BME280_pressure;Samples;Min_cycle;Max_cycle;Signal;HPM_P1;HPM_P2
2022/11/10 00:02:43;;;;;;;32.60;14.27;;;;;;;0.10;100.00;100889.64;1678952;85;21088;-80
2022/11/10 00:05:30;;;;;;;29.50;12.80;;;;;;;0.12;100.00;100894.87;1679410;85;21076;-80
2022/11/10 00:08:15;;;;;;;29.87;13.77;;;;;;;0.13;100.00;100902.78;1679176;85;21040;-81
2022/11/10 00:11:05;;;;;;;27.50;12.43;;;;;;;0.14;100.00;100900.97;1679331;85;21006;-80
2022/11/10 00:17:03;;;;;;;33.10;13.47;;;;;;;0.09;100.00;100901.69;1679573;85;21044;-82
2022/11/10 00:19:48;;;;;;;33.57;13.70;;;;;;;0.05;100.00;100900.14;1679815;85;21459;-83
2022/11/10 00:22:34;;;;;;;25.80;12.20;;;;;;;0.02;100.00;100898.97;1679720;85;21092;-81
2022/11/10 00:25:19;;;;;;;28.57;11.93;;;;;;;-0.02;100.00;100898.28;1680018;85;21092;-81
2022/11/10 00:28:04;;;;;;;30.43;12.90;;;;;;;-0.04;100.00;100897.51;1680941;85;21052;-81
2022/11/10 00:30:49;;;;;;;29.70;13.17;;;;;;;-0.06;100.00;100897.59;1681411;85;21084;-81
2022/11/10 00:33:37;;;;;;;35.13;15.77;;;;;;;-0.07;100.00;100902.98;1681391;84;21017;-82
2022/11/10 00:36:23;;;;;;;29.23;13.13;;;;;;;-0.11;100.00;100904.94;1591810;89;21061;-81
2022/11/10 00:39:09;;;;;;;30.20;13.27;;;;;;;-0.13;100.00;100931.23;1590973;89;21022;-82
2022/11/10 00:41:53;;;;;;;24.33;10.83;;;;;;;-0.15;100.00;100932.64;1590818;89;21145;-81
2022/11/10 00:44:39;;;;;;;29.87;13.50;;;;;;;-0.13;100.00;100943.20;1589472;89;21101;-81
2022/11/10 00:47:26;;;;;;;28.47;12.57;;;;;;;-0.08;100.00;100949.14;1589402;89;21556;-81
2022/11/10 00:50:10;;;;;;;27.93;12.13;;;;;;;-0.03;100.00;100959.91;1589567;89;21065;-81
2022/11/10 00:52:56;;;;;;;24.23;10.93;;;;;;;0.02;100.00;100966.34;1589523;89;21097;-81
2022/11/10 00:55:41;;;;;;;26.97;12.03;;;;;;;0.04;100.00;100964.92;1589664;89;21094;-81
2022/11/10 00:58:26;;;;;;;26.97;11.13;;;;;;;0.05;100.00;100962.16;1587201;90;21063;-82
2022/11/10 01:01:12;;;;;;;26.27;10.93;;;;;;;0.08;100.00;100965.99;1575816;91;21099;-81
2022/11/10 01:03:58;;;;;;;27.83;11.83;;;;;;;0.10;100.00;100968.58;1576122;91;21051;-81
2022/11/10 01:06:43;;;;;;;32.23;12.83;;;;;;;0.11;100.00;100968.98;1576473;91;21075;-80
2022/11/10 01:09:28;;;;;;;29.13;11.80;;;;;;;0.10;100.00;100972.09;1576499;91;21059;-81
2022/11/10 01:12:13;;;;;;;28.13;12.70;;;;;;;0.08;100.00;100967.32;1576451;91;21099;-80
2022/11/10 01:15:00;;;;;;;26.27;11.40;;;;;;;0.09;100.00;100967.73;1576244;91;21576;-81
2022/11/10 01:17:46;;;;;;;25.00;10.90;;;;;;;0.10;100.00;100967.25;1576407;90;21066;-82
2022/11/10 01:20:34;;;;;;;26.47;11.47;;;;;;;0.12;100.00;100969.35;1576029;91;21098;-81
2022/11/10 01:23:20;;;;;;;28.03;12.33;;;;;;;0.13;100.00;100966.61;1576021;91;21164;-80
2022/11/10 01:26:06;;;;;;;24.40;11.33;;;;;;;0.14;100.00;100979.44;1575704;91;21118;-80
2022/11/10 01:28:51;;;;;;;28.93;12.63;;;;;;;0.15;100.00;100975.84;1576239;91;21072;-81
2022/11/10 01:31:36;;;;;;;27.70;10.97;;;;;;;0.16;100.00;100983.75;1576126;91;21063;-80
2022/11/10 01:34:21;;;;;;;25.73;9.83;;;;;;;0.16;100.00;100984.20;1664701;86;21031;-82
2022/11/10 01:37:08;;;;;;;30.17;12.57;;;;;;;0.17;100.00;100987.26;1664532;85;21050;-81
2022/11/10 01:39:54;;;;;;;25.43;10.50;;;;;;;0.17;100.00;100987.26;1664693;84;21059;-82
2022/11/10 01:42:51;;;;;;;23.43;10.37;;;;;;;0.18;100.00;100992.98;1664643;85;21528;-81
2022/11/10 01:45:52;;;;;;;21.30;9.57;;;;;;;0.18;100.00;100999.16;1637477;87;21128;-81
2022/11/10 01:48:50;;;;;;;27.40;11.27;;;;;;;0.17;100.00;100989.92;1637210;88;21054;-81
2022/11/10 01:52:05;;;;;;;25.77;10.13;;;;;;;0.11;100.00;100991.11;1637474;88;21031;-80
2022/11/10 01:54:50;;;;;;;22.73;9.47;;;;;;;0.08;100.00;101003.70;1637026;88;21038;-81
2022/11/10 01:57:38;;;;;;;22.63;9.40;;;;;;;0.02;100.00;100997.36;1637325;87;21596;-81
2022/11/10 02:00:24;;;;;;;25.13;10.67;;;;;;;-0.03;100.00;100997.62;1640135;87;21026;-82
2022/11/10 02:03:24;;;;;;;23.10;9.23;;;;;;;-0.05;100.00;101001.69;1640324;87;21101;-81
2022/11/10 02:06:09;;;;;;;22.20;10.00;;;;;;;-0.09;100.00;101000.13;1640218;87;21623;-81
2022/11/10 02:08:55;;;;;;;21.60;9.10;;;;;;;-0.12;100.00;100997.62;1621970;87;21559;-81
2022/11/10 02:11:41;;;;;;;19.33;8.53;;;;;;;-0.16;100.00;101002.72;1640380;87;21118;-82
2022/11/10 02:14:26;;;;;;;19.10;8.13;;;;;;;-0.18;100.00;101001.06;1622074;87;21086;-82
2022/11/10 02:17:13;;;;;;;22.80;8.90;;;;;;;-0.20;100.00;101003.80;1640156;87;21544;-82
2022/11/10 02:20:03;;;;;;;19.63;8.37;;;;;;;-0.18;100.00;101011.69;1640301;87;21117;-82
2022/11/10 02:22:50;;;;;;;20.33;8.57;;;;;;;-0.18;100.00;101019.19;1640207;87;21022;-81
2022/11/10 02:25:35;;;;;;;19.93;8.90;;;;;;;-0.18;100.00;101016.53;1640401;87;21078;-80
2022/11/10 02:28:20;;;;;;;21.60;8.07;;;;;;;-0.21;100.00;101023.36;1640294;87;21079;-82
2022/11/10 02:31:07;;;;;;;19.10;7.83;;;;;;;-0.23;100.00;101027.42;1640117;87;21222;-81
2022/11/10 02:33:52;;;;;;;19.97;8.07;;;;;;;-0.23;100.00;101027.86;1640215;87;21054;-83
2022/11/10 02:36:38;;;;;;;21.33;8.50;;;;;;;-0.26;100.00;101034.21;1640226;85;21105;-81
2022/11/10 02:39:23;;;;;;;18.73;8.33;;;;;;;-0.26;100.00;101032.03;1640319;87;21555;-82
2022/11/10 02:42:09;;;;;;;20.93;9.03;;;;;;;-0.28;100.00;101026.79;1650358;86;21054;-82
2022/11/10 02:45:00;;;;;;;21.40;9.33;;;;;;;-0.28;100.00;101021.95;1656566;87;21528;-81
2022/11/10 02:47:46;;;;;;;18.87;8.47;;;;;;;-0.28;100.00;101017.96;1656914;87;21058;-80
2022/11/10 02:50:31;;;;;;;20.50;8.60;;;;;;;-0.28;100.00;101023.28;1656743;87;21099;-82
2022/11/10 02:53:16;;;;;;;19.83;9.07;;;;;;;-0.30;100.00;101017.16;1657015;87;21024;-82
2022/11/10 02:56:01;;;;;;;21.90;9.57;;;;;;;-0.33;100.00;101014.67;1656558;87;21074;-82
2022/11/10 02:58:48;;;;;;;18.37;8.87;;;;;;;-0.33;100.00;101016.00;1686958;85;20968;-80
2022/11/10 03:01:34;;;;;;;20.60;8.33;;;;;;;-0.34;100.00;101016.45;1683135;85;21517;-81
2022/11/10 03:04:19;;;;;;;20.87;9.10;;;;;;;-0.35;100.00;101016.08;1683224;85;21046;-83
2022/11/10 03:07:04;;;;;;;21.87;8.37;;;;;;;-0.34;100.00;101020.91;1682875;85;21062;-81
2022/11/10 03:09:51;;;;;;;18.60;7.87;;;;;;;-0.38;100.00;101018.88;1683106;85;21086;-82
2022/11/10 03:12:36;;;;;;;18.07;8.00;;;;;;;-0.40;100.00;101024.27;1683142;85;21082;-82
2022/11/10 03:15:23;;;;;;;21.50;9.13;;;;;;;-0.39;100.00;101021.13;1683169;85;21520;-81
2022/11/10 03:18:09;;;;;;;21.57;8.77;;;;;;;-0.41;100.00;101029.66;1682900;85;21607;-82
2022/11/10 03:20:54;;;;;;;22.03;8.00;;;;;;;-0.43;100.00;101036.37;1683178;85;21047;-81
2022/11/10 03:23:40;;;;;;;19.77;8.37;;;;;;;-0.44;100.00;101037.32;1683057;85;21039;-81
2022/11/10 03:26:25;;;;;;;22.00;9.07;;;;;;;-0.46;100.00;101040.53;1683139;85;21051;-81
2022/11/10 03:29:10;;;;;;;18.57;7.37;;;;;;;-0.49;100.00;101042.00;1683160;85;21098;-82
2022/11/10 03:31:55;;;;;;;21.03;8.57;;;;;;;-0.52;100.00;101048.78;1683159;85;21007;-81
2022/11/10 03:34:42;;;;;;;20.27;8.37;;;;;;;-0.55;100.00;101048.08;1682800;85;21043;-82
2022/11/10 03:37:27;;;;;;;19.60;8.50;;;;;;;-0.62;100.00;101039.54;1683289;84;21063;-83
2022/11/10 03:40:12;;;;;;;23.40;8.80;;;;;;;-0.65;100.00;101041.04;1682963;85;21027;-81
2022/11/10 03:42:59;;;;;;;19.40;7.83;;;;;;;-0.68;100.00;101050.48;1683207;85;21023;-82
2022/11/10 03:45:47;;;;;;;18.60;7.73;;;;;;;-0.72;100.00;101044.45;1682906;85;21608;-81
2022/11/10 03:48:33;;;;;;;18.50;7.80;;;;;;;-0.73;100.00;101047.18;1682968;85;21075;-82
2022/11/10 03:51:19;;;;;;;19.10;7.60;;;;;;;-0.73;100.00;101053.34;1683005;85;21062;-81
2022/11/10 03:54:05;;;;;;;20.27;7.77;;;;;;;-0.75;100.00;101060.53;1683209;85;21584;-80
2022/11/10 03:56:51;;;;;;;19.33;7.50;;;;;;;-0.76;100.00;101057.50;1680919;84;21055;-81
2022/11/10 03:59:37;;;;;;;18.10;7.83;;;;;;;-0.78;100.00;101062.88;1664582;86;21031;-82
2022/11/10 04:02:23;;;;;;;21.47;8.77;;;;;;;-0.80;100.00;101058.11;1664790;86;21070;-80
2022/11/10 04:17:26;;;;;;;22.30;9.53;;;;;;;-0.87;100.00;101069.08;1664902;86;21023;-82
2022/11/10 04:20:11;;;;;;;21.30;9.20;;;;;;;-0.85;100.00;101074.73;1664960;86;21075;-81
2022/11/10 04:26:28;;;;;;;22.67;9.47;;;;;;;-0.82;100.00;101078.55;1665279;86;21050;-81
2022/11/10 04:29:15;;;;;;;21.57;9.40;;;;;;;-0.80;100.00;101085.11;1589858;90;21155;-82
2022/11/10 04:32:00;;;;;;;22.63;10.33;;;;;;;-0.81;100.00;101080.75;1573536;91;21152;-80
2022/11/10 04:34:45;;;;;;;21.73;9.43;;;;;;;-0.82;100.00;101093.63;1545399;92;21077;-80
2022/11/10 04:37:32;;;;;;;22.23;9.73;;;;;;;-0.82;100.00;101095.80;1570607;91;21124;-81
2022/11/10 04:40:17;;;;;;;21.97;10.40;;;;;;;-0.84;100.00;101099.48;1601384;89;21547;-82
2022/11/10 04:43:02;;;;;;;22.33;10.83;;;;;;;-0.87;100.00;101098.29;1602382;90;21020;-80
2022/11/10 04:45:48;;;;;;;21.87;9.73;;;;;;;-0.89;100.00;101093.52;1601534;88;21086;-81
2022/11/10 04:48:35;;;;;;;19.80;8.93;;;;;;;-0.90;100.00;101098.42;1571768;88;21162;-83
2022/11/10 04:51:29;;;;;;;19.80;9.43;;;;;;;-0.94;100.00;101101.69;1569931;91;21213;-82
2022/11/10 04:54:15;;;;;;;20.67;9.40;;;;;;;-0.97;100.00;101100.53;1569709;91;21129;-81
2022/11/10 04:57:01;;;;;;;20.27;9.27;;;;;;;-1.00;100.00;101090.89;1569315;89;21147;-82
2022/11/10 04:59:47;;;;;;;24.63;9.53;;;;;;;-1.03;100.00;101096.81;1577791;90;21073;-82
2022/11/10 05:02:33;;;;;;;24.37;10.60;;;;;;;-1.07;100.00;101095.24;1567233;91;21101;-80
2022/11/10 05:05:18;;;;;;;28.17;11.53;;;;;;;-1.08;100.00;101102.36;1561572;91;21153;-82
2022/11/10 05:08:04;;;;;;;29.73;12.17;;;;;;;-1.09;100.00;101102.42;1561729;91;21050;-81
2022/11/10 05:10:49;;;;;;;26.30;11.60;;;;;;;-1.11;100.00;101110.45;1561754;91;21153;-80
2022/11/10 05:13:36;;;;;;;24.53;10.10;;;;;;;-1.08;100.00;101105.45;1561853;91;21130;-80
2022/11/10 05:16:20;;;;;;;22.30;10.50;;;;;;;-1.05;100.00;101112.81;1562100;91;21101;-81
2022/11/10 05:19:07;;;;;;;24.03;10.57;;;;;;;-1.02;100.00;101114.00;1561938;91;21090;-81
2022/11/10 05:21:53;;;;;;;24.00;10.50;;;;;;;-0.99;100.00;101120.51;1562028;91;21089;-80
2022/11/10 05:24:39;;;;;;;22.80;10.13;;;;;;;-0.94;100.00;101123.41;1587692;86;21606;-80
2022/11/10 05:27:24;;;;;;;19.73;9.50;;;;;;;-0.92;100.00;101130.83;1673397;86;21029;-81
2022/11/10 05:30:10;;;;;;;26.03;10.23;;;;;;;-0.90;100.00;101139.58;1696429;85;21098;-82
2022/11/10 05:32:56;;;;;;;22.43;9.73;;;;;;;-0.88;100.00;101141.25;1696198;85;21059;-81
2022/11/10 05:35:41;;;;;;;23.17;9.80;;;;;;;-0.84;100.00;101142.83;1695784;85;21112;-81
2022/11/10 05:38:26;;;;;;;26.43;10.43;;;;;;;-0.81;100.00;101147.15;1689829;84;21060;-81
2022/11/10 05:41:12;;;;;;;24.40;10.10;;;;;;;-0.77;100.00;101147.39;1676142;86;21056;-79
2022/11/10 05:43:58;;;;;;;20.63;10.40;;;;;;;-0.75;100.00;101146.00;1684518;85;21118;-78
2022/11/10 05:46:43;;;;;;;20.63;9.90;;;;;;;-0.72;100.00;101147.19;1695550;83;21086;-80
2022/11/10 05:49:29;;;;;;;20.07;8.43;;;;;;;-0.69;100.00;101153.22;1728167;83;21034;-80
2022/11/10 05:52:15;;;;;;;22.23;9.30;;;;;;;-0.64;100.00;101159.19;1683877;85;21045;-83
2022/11/10 05:55:01;;;;;;;22.47;8.93;;;;;;;-0.57;100.00;101166.38;1691200;83;21042;-82
2022/11/10 05:57:49;;;;;;;19.77;9.00;;;;;;;-0.51;100.00;101170.09;1658545;86;20983;-80
2022/11/10 06:00:37;;;;;;;20.43;8.37;;;;;;;-0.44;100.00;101171.52;1671958;86;21053;-78
2022/11/10 06:03:23;;;;;;;22.70;10.10;;;;;;;-0.35;100.00;101174.20;1665584;86;21038;-79
2022/11/10 08:10:30;;;;;;;18.53;9.43;;;;;;;5.87;100.00;101236.27;1730341;82;21038;-77
2022/11/10 08:13:18;;;;;;;18.03;8.87;;;;;;;6.30;100.00;101232.29;1672757;85;21059;-81
2022/11/10 08:16:04;;;;;;;19.53;8.80;;;;;;;6.53;100.00;101238.13;1686133;84;21046;-77
2022/11/10 08:18:50;;;;;;;20.47;9.33;;;;;;;6.75;100.00;101227.97;1660933;84;21065;-73
2022/11/10 08:21:35;;;;;;;20.83;9.77;;;;;;;6.98;100.00;101214.09;1667021;85;21103;-75
2022/11/10 08:24:21;;;;;;;19.90;9.33;;;;;;;7.15;100.00;101189.05;1681129;85;21083;-77
2022/11/10 08:27:06;;;;;;;22.53;10.40;;;;;;;7.35;100.00;101172.70;1686233;84;21056;-74
2022/11/10 08:29:53;;;;;;;24.00;11.37;;;;;;;7.56;100.00;101148.55;1667650;85;21103;-70
2022/11/10 08:32:38;;;;;;;21.97;10.37;;;;;;;7.80;100.00;101106.16;1686121;84;21064;-74
2022/11/10 08:35:28;;;;;;;30.60;11.63;;;;;;;8.04;100.00;101078.19;1686647;84;21552;-71
2022/11/10 08:38:20;;;;;;;17.43;8.93;;;;;;;8.24;100.00;101033.37;1687472;84;21040;-69
2022/11/10 08:41:05;;;;;;;21.27;9.93;;;;;;;8.47;100.00;100986.11;1670120;85;21047;-69
2022/11/10 08:43:50;;;;;;;22.40;10.10;;;;;;;8.65;100.00;100929.20;1674071;85;21014;-71
2022/11/10 08:46:36;;;;;;;24.70;10.57;;;;;;;8.83;100.00;100883.55;1685224;84;21086;-73
2022/11/10 08:49:21;;;;;;;21.53;10.10;;;;;;;9.02;100.00;100831.98;1685755;84;21558;-74
2022/11/10 08:52:06;;;;;;;22.10;10.43;;;;;;;9.20;100.00;100774.09;1685639;84;21023;-73
2022/11/10 08:54:51;;;;;;;23.97;11.03;;;;;;;9.33;100.00;100727.43;1678421;84;21067;-73
2022/11/10 08:57:37;;;;;;;18.80;9.10;;;;;;;9.43;100.00;100682.34;1712682;84;21035;-76
2022/11/10 09:00:22;;;;;;;15.70;8.70;;;;;;;9.59;100.00;100645.25;1691009;83;21231;-75
2022/11/10 09:03:15;;;;;;;19.23;8.83;;;;;;;9.64;100.00;100601.11;1651274;87;21019;-77
2022/11/10 09:06:01;;;;;;;18.12;8.40;;;;;;;9.65;100.00;100573.59;1617267;89;21095;-76
2022/11/10 09:08:47;;;;;;;24.23;9.90;;;;;;;9.61;100.00;100556.01;1617061;89;21143;-78
2022/11/10 09:11:32;;;;;;;20.55;9.83;;;;;;;9.73;100.00;100558.84;1636224;86;21518;-79
2022/11/10 09:14:19;;;;;;;19.37;9.55;;;;;;;9.88;100.00;100565.42;1640074;87;21065;-74
2022/11/10 09:17:04;;;;;;;17.30;8.60;;;;;;;9.98;100.00;100569.38;1640085;86;21017;-79
2022/11/10 09:19:49;;;;;;;19.40;9.10;;;;;;;10.10;100.00;100598.89;1639967;87;21064;-73
2022/11/10 09:22:35;;;;;;;21.57;9.80;;;;;;;10.01;100.00;100622.28;1639759;86;21530;-74
2022/11/10 09:25:21;;;;;;;21.62;9.33;;;;;;;9.99;100.00;100644.55;1610618;87;21044;-76
2022/11/10 09:28:12;;;;;;;16.60;7.87;;;;;;;9.84;100.00;100662.62;1609345;89;21064;-76
2022/11/10 09:30:58;;;;;;;19.90;8.68;;;;;;;9.74;100.00;100685.26;1610144;89;21044;-72
2022/11/10 09:33:45;;;;;;;16.07;7.33;;;;;;;9.75;100.00;100703.17;1607842;89;21088;-77
2022/11/10 09:36:31;;;;;;;15.93;7.47;;;;;;;9.89;100.00;100710.78;1614419;88;21005;-76
2022/11/10 09:39:17;;;;;;;15.93;7.58;;;;;;;10.02;100.00;100732.91;1634279;88;21078;-79
2022/11/10 09:42:05;;;;;;;14.90;7.58;;;;;;;9.97;100.00;100741.95;1634191;88;21039;-79
2022/11/10 09:44:58;;;;;;;14.83;7.30;;;;;;;9.97;100.00;100747.84;1634434;88;21147;-75
2022/11/10 09:48:07;;;;;;;15.63;7.70;;;;;;;9.71;100.00;100768.79;1583894;91;21070;-75
2022/11/10 09:51:03;;;;;;;19.55;9.78;;;;;;;9.62;100.00;100782.67;1588739;89;21118;-73
2022/11/10 09:53:58;;;;;;;21.90;8.00;;;;;;;9.67;100.00;100787.64;1589000;90;21143;-78
2022/11/10 09:56:43;;;;;;;15.08;7.50;;;;;;;9.84;100.00;100795.45;1588809;90;21070;-74
2022/11/10 10:02:30;;;;;;;14.40;6.65;;;;;;;9.95;100.00;100798.47;1538835;93;21590;-76
2022/11/10 10:05:40;;;;;;;11.12;6.72;;;;;;;10.04;100.00;100801.66;1540188;93;21575;-78
2022/11/10 10:08:59;;;;;;;13.45;7.22;;;;;;;10.28;100.00;100801.60;1540697;93;21103;-78
2022/11/10 10:11:53;;;;;;;12.80;7.15;;;;;;;10.48;100.00;100801.01;1518771;91;21093;-82
2022/11/10 10:14:55;;;;;;;16.35;8.53;;;;;;;10.49;100.00;100811.67;1513567;95;21106;-80
2022/11/10 10:17:54;;;;;;;18.75;8.23;;;;;;;10.66;100.00;100815.42;1512580;94;21298;-75
2022/11/10 10:20:49;;;;;;;15.20;6.92;;;;;;;11.00;100.00;100810.17;1479288;96;21105;-78
2022/11/10 10:23:37;;;;;;;;;;;;;;;11.37;100.00;100809.65;1396006;101;21179;-74
2022/11/10 10:26:31;;;;;;;14.93;6.83;;;;;;;11.42;100.00;100828.98;1400871;103;20454;-80
2022/11/10 10:29:21;;;;;;;17.00;6.80;;;;;;;11.35;100.00;100840.94;1367895;103;21246;-78
2022/11/10 10:32:12;;;;;;;13.90;5.95;;;;;;;11.24;100.00;100847.93;1394139;101;21133;-81
2022/11/10 10:34:58;;;;;;;17.02;7.53;;;;;;;11.08;100.00;100852.69;1377499;103;21215;-80
2022/11/10 10:37:51;;;;;;;16.20;7.75;;;;;;;11.12;100.00;100850.52;1388065;103;21119;-82
2022/11/10 10:40:36;;;;;;;14.43;6.37;;;;;;;11.33;100.00;100856.98;1331190;108;21138;-74
2022/11/10 10:43:22;;;;;;;15.05;7.58;;;;;;;11.54;100.00;100851.23;1332062;104;21168;-75
2022/11/10 10:46:10;;;;;;;13.25;6.72;;;;;;;11.64;100.00;100869.59;1378099;104;21123;-85
2022/11/10 10:49:20;;;;;;;18.27;7.78;;;;;;;11.77;100.00;100869.17;1378326;104;21143;-80
2022/11/10 10:52:13;;;;;;;15.40;7.22;;;;;;;11.77;100.00;100873.23;1377644;104;21117;-80
2022/11/10 10:55:00;;;;;;;12.60;7.08;;;;;;;11.65;100.00;100890.27;1377341;104;21621;-82
2022/11/10 10:57:53;;;;;;;20.92;8.78;;;;;;;11.28;100.00;100903.97;1377169;103;21152;-80
2022/11/10 11:00:45;;;;;;;18.42;8.50;;;;;;;10.91;100.00;100913.09;1404169;102;21150;-80
2022/11/10 11:03:46;;;;;;;23.25;10.43;;;;;;;10.67;100.00;100913.64;1392239;103;21164;-78
2022/11/10 11:06:33;;;;;;;17.70;8.08;;;;;;;10.49;100.00;100913.59;1414017;101;21220;-76
2022/11/10 11:09:25;;;;;;;20.43;8.08;;;;;;;10.32;100.00;100905.75;1415071;101;21156;-79
2022/11/10 11:12:48;;;;;;;;;;;;;;;;;;;;;
2022/11/10 11:15:29;;;;;;;21.57;10.00;;;;;;;9.85;100.00;100906.06;1358158;105;21201;-74
2022/11/10 11:18:16;;;;;;;17.57;8.78;;;;;;;9.62;100.00;100914.14;1345692;106;21156;-78
2022/11/10 11:21:27;;;;;;;16.82;7.92;;;;;;;9.44;100.00;100902.70;1342306;107;21169;-76
2022/11/10 11:24:33;;;;;;;15.05;7.65;;;;;;;9.50;100.00;100899.92;1365828;105;21150;-77
2022/11/10 11:27:29;;;;;;;15.58;7.85;;;;;;;9.77;100.00;100885.67;1387678;103;21293;-78
2022/11/10 11:30:22;;;;;;;26.93;13.98;;;;;;;10.12;100.00;100880.11;1387857;103;21140;-79
2022/11/10 11:33:33;;;;;;;15.45;8.13;;;;;;;10.40;100.00;100889.14;1394264;102;21086;-85
2022/11/10 11:36:52;;;;;;;16.62;6.90;;;;;;;10.54;100.00;100904.02;1393016;97;21101;-80
2022/11/10 11:40:22;;;;;;;14.15;6.78;;;;;;;10.49;100.00;100913.59;1379439;103;21181;-78
2022/11/10 11:43:47;;;;;;;14.07;7.00;;;;;;;10.31;100.00;100928.36;1385255;101;21075;-77
2022/11/10 11:46:55;;;;;;;17.70;8.23;;;;;;;10.20;100.00;100923.98;1432800;96;21101;-76
2022/11/10 11:50:10;;;;;;;16.77;8.33;;;;;;;10.09;100.00;100934.44;1432607;99;21155;-82
2022/11/10 11:53:43;;;;;;;20.50;9.40;;;;;;;9.96;100.00;100929.36;1404278;101;21170;-76
2022/11/10 11:56:40;;;;;;;20.88;9.28;;;;;;;9.67;100.00;100938.87;1412445;100;21129;-76
2022/11/10 12:00:05;;;;;;;15.93;7.65;;;;;;;9.43;100.00;100932.03;1477309;93;22495;-73
2022/11/10 12:03:02;;;;;;;17.90;8.30;;;;;;;9.37;100.00;100930.42;1484091;97;21123;-78
2022/11/10 12:06:03;;;;;;;17.62;8.13;;;;;;;9.26;100.00;100933.61;1484367;96;21631;-76
2022/11/10 12:09:09;;;;;;;16.97;7.87;;;;;;;9.17;100.00;100934.93;1521530;92;21608;-81
2022/11/10 12:12:15;;;;;;;17.15;8.65;;;;;;;9.05;100.00;100932.37;1509553;94;21593;-74
2022/11/10 12:15:24;;;;;;;19.90;8.43;;;;;;;8.91;100.00;100926.02;1422426;99;21144;-74
2022/11/10 12:18:20;;;;;;;21.60;8.70;;;;;;;8.91;100.00;100917.43;1400877;102;21670;-72
2022/11/10 12:21:26;;;;;;;22.42;10.13;;;;;;;8.90;100.00;100912.17;1422367;100;21150;-74
2022/11/10 12:24:27;;;;;;;20.52;9.00;;;;;;;8.96;100.00;100912.10;1365919;102;21641;-72
2022/11/10 12:27:26;;;;;;;19.12;8.93;;;;;;;9.10;100.00;100909.00;1364962;104;21208;-74
2022/11/10 12:30:13;;;;;;;18.75;8.68;;;;;;;9.44;100.00;100900.52;1364268;105;21210;-71
2022/11/10 12:33:12;;;;;;;17.98;8.23;;;;;;;9.96;100.00;100893.39;1402288;102;21118;-71
2022/11/10 12:35:58;;;;;;;21.60;9.48;;;;;;;10.36;100.00;100893.14;1404825;102;21221;-76
2022/11/10 12:39:04;;;;;;;17.20;9.55;;;;;;;10.77;100.00;100896.35;1404948;102;21152;-74
2022/11/10 12:41:53;;;;;;;15.35;8.00;;;;;;;10.82;100.00;100918.39;1404782;102;21137;-70
2022/11/10 12:44:50;;;;;;;19.90;9.43;;;;;;;10.50;100.00;100935.55;1404981;102;21153;-73
2022/11/10 12:47:41;;;;;;;20.72;9.25;;;;;;;10.17;100.00;100939.98;1356023;104;21146;-75
2022/11/10 12:50:46;;;;;;;16.95;8.58;;;;;;;10.03;100.00;100935.88;1359894;103;21193;-75
2022/11/10 12:53:40;;;;;;;15.78;7.80;;;;;;;9.81;100.00;100941.13;1392136;102;21175;-74
2022/11/10 12:56:43;;;;;;;19.95;8.50;;;;;;;9.55;100.00;100942.71;1424370;99;21217;-74
2022/11/10 12:59:33;;;;;;;40.78;20.70;;;;;;;9.31;100.00;100941.26;1481884;94;21065;-75
2022/11/10 13:02:36;;;;;;;27.70;10.98;;;;;;;9.23;100.00;100943.83;1566837;90;21098;-75
2022/11/10 13:05:30;;;;;;;18.90;10.15;;;;;;;9.33;100.00;100938.42;1564410;90;21079;-75
2022/11/10 13:08:44;;;;;;;22.65;11.83;;;;;;;9.37;100.00;100937.17;1583514;88;21026;-76
2022/11/10 13:11:33;;;;;;;24.05;11.78;;;;;;;9.34;100.00;100941.49;1618419;87;21732;-74
2022/11/10 13:14:25;;;;;;;18.37;8.20;;;;;;;9.23;100.00;100942.48;1614033;89;21136;-77
2022/11/10 13:17:31;;;;;;;21.37;9.75;;;;;;;9.15;100.00;100940.97;1602689;89;21136;-77
2022/11/10 13:20:42;;;;;;;20.35;9.85;;;;;;;9.05;100.00;100936.92;1600780;90;21057;-74
2022/11/10 13:23:45;;;;;;;16.97;8.40;;;;;;;8.81;100.00;100934.08;1601828;87;21100;-75
2022/11/10 13:26:45;;;;;;;19.92;9.30;;;;;;;8.54;100.00;100937.41;1701241;83;21087;-74
2022/11/10 13:29:49;;;;;;;22.65;10.08;;;;;;;8.35;100.00;100933.59;1710657;83;21022;-80
2022/11/10 13:32:36;;;;;;;18.60;8.45;;;;;;;8.14;100.00;100938.16;1676694;86;21102;-76
2022/11/10 13:35:39;;;;;;;15.85;8.50;;;;;;;7.92;100.00;100938.68;1676266;86;21053;-75
2022/11/10 13:38:37;;;;;;;17.87;8.43;;;;;;;7.79;100.00;100936.66;1681826;83;21089;-73
2022/11/10 13:41:25;;;;;;;18.80;7.70;;;;;;;7.69;100.00;100929.03;1695799;84;21077;-75
2022/11/10 13:44:31;;;;;;;18.33;8.73;;;;;;;7.62;100.00;100930.55;1670663;86;21077;-74
2022/11/10 13:47:37;;;;;;;21.77;9.13;;;;;;;7.54;100.00;100932.05;1710137;84;20982;-74
2022/11/10 13:50:28;;;;;;;23.67;8.90;;;;;;;7.46;100.00;100926.95;1708218;84;21017;-74
2022/11/10 13:53:33;;;;;;;18.67;8.53;;;;;;;7.32;100.00;100922.72;1702094;84;20996;-73
2022/11/10 13:56:47;;;;;;;18.83;8.20;;;;;;;7.17;100.00;100923.02;1700629;84;21452;-74
2022/11/10 13:59:32;;;;;;;22.67;9.50;;;;;;;7.01;100.00;100923.90;1698321;83;21046;-73
2022/11/10 14:02:38;;;;;;;31.93;10.97;;;;;;;6.82;100.00;100920.55;1704605;84;21013;-73
2022/11/10 14:05:37;;;;;;;27.80;11.37;;;;;;;6.65;100.00;100920.56;1704358;84;20998;-73
2022/11/10 14:08:24;;;;;;;29.23;10.20;;;;;;;6.48;100.00;100919.25;1703001;83;20999;-72
2022/11/10 14:11:21;;;;;;;18.80;8.20;;;;;;;6.30;100.00;100913.98;1700663;82;21044;-72
2022/11/10 14:14:23;;;;;;;18.77;8.13;;;;;;;6.13;100.00;100914.84;1692608;83;21078;-76
2022/11/10 14:17:25;;;;;;;18.87;8.10;;;;;;;5.96;100.00;100912.13;1690157;85;21054;-74
2022/11/10 14:20:36;;;;;;;18.47;8.17;;;;;;;5.80;100.00;100912.92;1673554;86;21108;-78
2022/11/10 14:23:33;;;;;;;15.87;7.60;;;;;;;5.66;100.00;100917.52;1674468;86;21022;-76
2022/11/10 14:26:38;;;;;;;17.30;7.80;;;;;;;5.56;100.00;100906.27;1674586;86;21096;-75
2022/11/10 14:32:25;;;;;;;20.33;9.47;;;;;;;5.37;100.00;100897.45;1648494;86;21061;-77
2022/11/10 14:35:23;;;;;;;19.27;8.73;;;;;;;5.24;100.00;100898.84;1648553;85;21163;-72
2022/11/10 14:38:25;;;;;;;20.63;8.87;;;;;;;5.13;100.00;100896.50;1592900;87;21062;-73
2022/11/10 14:41:21;;;;;;;24.60;9.93;;;;;;;5.05;100.00;100889.52;1527777;94;21145;-74
2022/11/10 14:44:12;;;;;;;19.80;8.97;;;;;;;4.94;100.00;100899.70;1511851;94;21114;-73
2022/11/10 14:47:24;;;;;;;19.20;9.00;;;;;;;4.84;100.00;100889.77;1511789;94;21119;-73
2022/11/10 14:50:24;;;;;;;19.47;7.53;;;;;;;4.73;100.00;100890.07;1527849;94;21074;-74
2022/11/10 14:53:37;;;;;;;16.17;6.67;;;;;;;4.61;100.00;100892.30;1527886;94;21137;-73
2022/11/10 14:56:26;;;;;;;17.27;7.62;;;;;;;4.52;100.00;100886.28;1504302;95;21103;-72
2022/11/10 14:59:11;;;;;;;13.40;6.87;;;;;;;4.44;100.00;100886.82;1526788;93;21620;-73
2022/11/10 15:01:58;;;;;;;17.93;8.00;;;;;;;4.37;100.00;100878.86;1549554;93;21101;-72
2022/11/10 15:04:43;;;;;;;19.27;8.63;;;;;;;4.32;100.00;100870.30;1551020;93;21124;-72
2022/11/10 15:07:29;;;;;;;21.27;8.60;;;;;;;4.27;100.00;100876.00;1531934;94;21101;-72
2022/11/10 15:10:24;;;;;;;18.70;8.73;;;;;;;4.22;100.00;100867.94;1537879;92;21061;-71
2022/11/10 15:13:17;;;;;;;24.43;9.57;;;;;;;4.17;100.00;100870.44;1550933;92;21160;-73
2022/11/10 15:16:27;;;;;;;27.70;9.10;;;;;;;4.12;100.00;100873.91;1550623;93;21137;-72
2022/11/10 15:19:28;;;;;;;18.47;8.37;;;;;;;4.06;100.00;100874.37;1550456;93;21118;-73
2022/11/10 15:22:34;;;;;;;22.57;8.83;;;;;;;3.98;100.00;100861.54;1534010;93;21600;-72
2022/11/10 15:25:24;;;;;;;19.57;8.07;;;;;;;3.92;100.00;100855.27;1526380;94;21557;-71
2022/11/10 15:28:24;;;;;;;18.50;7.63;;;;;;;3.86;100.00;100863.74;1528532;93;21610;-71
2022/11/10 15:31:12;;;;;;;24.97;8.70;;;;;;;3.79;100.00;100865.14;1538906;93;21086;-69
2022/11/10 15:34:01;;;;;;;20.40;7.70;;;;;;;3.74;100.00;100863.27;1539147;93;21129;-71